Terminal Aerodrome Forecast
Issued by NWS Nashville, TN

Home | Current Version | Previous Version | Text Only | Print | Product List | Glossary On
Versions: 1 2 3 4 5 6 7 8 9 10 11 12 13 14 15 16 17 18
882
FTUS44 KOHX 260539
TAFCSV
TAF
KCSV 260539Z 2606/2706 15003KT P6SM SKC
      TEMPO 2608/2612 5SM BR
     FM261900 26004KT P6SM VCSH SCT045 BKN060
     FM270000 00000KT P6SM BKN250=

USA.gov is the U.S. government's official web portal to all federal, state and local government web resources and services.